Time;durP1;ratioP1;P1;durP2;ratioP2;P2;SDS_P1;SDS_P2;PMS_P1;PMS_P2;Temp;Humidity;BMP_temperature;BMP_pressure;BME280_temperature;BME280_humidity;BME280_pressure;Samples;Min_cycle;Max_cycle;Signal;HPM_P1;HPM_P2
2022/10/03 00:02:09;;;;;;;13.30;2.80;;;10.60;99.90;;;;;;5092957;28;20947;-71
2022/10/03 00:04:58;;;;;;;6.30;1.73;;;10.70;99.90;;;;;;5092326;28;20511;-72
2022/10/03 00:07:50;;;;;;;11.37;2.77;;;10.70;99.90;;;;;;5078894;28;20422;-71
2022/10/03 00:10:31;;;;;;;11.53;2.90;;;10.80;99.90;;;;;;5093165;28;20439;-72
2022/10/03 00:13:12;;;;;;;13.80;2.77;;;10.80;99.90;;;;;;5079311;28;20399;-71
2022/10/03 00:15:48;;;;;;;5.90;1.90;;;10.80;99.90;;;;;;5092663;28;20950;-71
2022/10/03 00:18:30;;;;;;;12.47;3.23;;;10.90;1.00;;;;;;5092071;28;20468;-70
2022/10/03 00:21:21;;;;;;;14.27;1.80;;;10.90;1.00;;;;;;5091655;28;20429;-74
2022/10/03 00:23:57;;;;;;;8.10;2.40;;;10.90;99.90;;;;;;5085884;28;20821;-70
2022/10/03 00:26:34;;;;;;;10.30;2.80;;;10.90;99.90;;;;;;5091965;28;20445;-72
2022/10/03 00:29:24;;;;;;;12.90;2.37;;;10.90;1.00;;;;;;5090834;28;20924;-72
2022/10/03 00:32:04;;;;;;;13.90;2.93;;;10.90;1.00;;;;;;5073360;28;20421;-72
2022/10/03 00:34:46;;;;;;;8.50;2.43;;;10.90;99.90;;;;;;5078446;28;20448;-71
2022/10/03 00:37:26;;;;;;;16.73;2.60;;;10.90;1.00;;;;;;5089415;28;20547;-72
2022/10/03 00:40:26;;;;;;;8.90;3.50;;;10.90;99.90;;;;;;5053098;28;20446;-71
2022/10/03 00:43:31;;;;;;;6.20;2.90;;;10.90;1.00;;;;;;5051482;28;20449;-71
2022/10/03 00:46:29;;;;;;;11.57;2.70;;;10.90;99.90;;;;;;5084325;28;20456;-71
2022/10/03 00:49:28;;;;;;;10.57;2.87;;;10.80;1.00;;;;;;5083489;28;20866;-72
2022/10/03 00:52:15;;;;;;;10.43;2.97;;;10.80;99.90;;;;;;5067959;28;20737;-71
2022/10/03 00:54:56;;;;;;;11.90;3.13;;;10.70;1.00;;;;;;5084005;28;20459;-71
2022/10/03 00:57:52;;;;;;;12.13;2.37;;;10.70;99.90;;;;;;5070675;28;20989;-71
2022/10/03 01:00:24;;;;;;;12.20;3.13;;;10.70;1.00;;;;;;5084365;28;20433;-72
2022/10/03 01:03:12;;;;;;;10.83;2.87;;;10.60;1.00;;;;;;5091459;28;20408;-70
2022/10/03 01:05:59;;;;;;;11.03;2.53;;;10.60;99.90;;;;;;5085215;28;20432;-71
2022/10/03 01:08:56;;;;;;;12.00;3.03;;;10.60;99.90;;;;;;5085531;28;20983;-72
2022/10/03 01:11:38;;;;;;;12.23;1.97;;;10.60;99.90;;;;;;5091116;28;20478;-71
2022/10/03 01:14:21;;;;;;;20.03;2.70;;;10.70;99.90;;;;;;5066708;28;20451;-71
2022/10/03 01:17:02;;;;;;;11.23;2.50;;;10.70;99.90;;;;;;5086442;28;20461;-72
2022/10/03 01:19:59;;;;;;;5.23;2.10;;;10.80;99.90;;;;;;5092571;28;20424;-72
2022/10/03 01:22:57;;;;;;;24.47;3.23;;;10.80;99.90;;;;;;5090729;28;20437;-72
2022/10/03 01:25:39;;;;;;;9.63;2.73;;;10.90;99.90;;;;;;5095056;28;20439;-70
2022/10/03 01:31:33;;;;;;;10.23;2.13;;;11.00;98.20;;;;;;5083368;28;20559;-71
2022/10/03 01:34:07;;;;;;;20.13;3.93;;;11.00;1.00;;;;;;5085652;28;20854;-71
2022/10/03 01:36:43;;;;;;;13.83;2.10;;;11.00;1.00;;;;;;5084011;28;20391;-72
2022/10/03 01:39:19;;;;;;;11.63;2.67;;;11.10;1.00;;;;;;5095501;28;20504;-73
2022/10/03 01:41:57;;;;;;;9.50;2.37;;;11.10;1.00;;;;;;5086407;28;20500;-72
2022/10/03 01:44:39;;;;;;;5.87;1.93;;;11.10;1.00;;;;;;5053009;28;20869;-72
2022/10/03 01:47:20;;;;;;;8.93;2.77;;;11.10;99.90;;;;;;5077131;28;20456;-72
2022/10/03 01:49:57;;;;;;;14.80;3.40;;;11.10;51.10;;;;;;5085827;28;20391;-71
2022/10/03 01:52:36;;;;;;;10.13;4.03;;;11.20;1.00;;;;;;5086937;28;20431;-71
2022/10/03 01:55:15;;;;;;;11.83;2.07;;;11.10;1.00;;;;;;5075099;28;20420;-71
2022/10/03 01:57:49;;;;;;;8.30;2.30;;;11.10;1.00;;;;;;5089061;28;20499;-72
2022/10/03 02:00:22;;;;;;;14.17;2.53;;;11.20;1.00;;;;;;5094645;28;20417;-72
2022/10/03 02:03:00;;;;;;;7.37;2.33;;;11.20;1.00;;;;;;5088383;28;20425;-72
2022/10/03 02:05:39;;;;;;;15.93;3.90;;;11.20;1.00;;;;;;5095183;28;20702;-72
2022/10/03 02:08:22;;;;;;;14.90;3.03;;;11.20;1.00;;;;;;5084769;28;20516;-70
2022/10/03 02:10:56;;;;;;;7.93;2.47;;;11.20;1.00;;;;;;5094152;28;20508;-73
2022/10/03 02:13:30;;;;;;;13.43;2.23;;;11.30;1.00;;;;;;5101850;28;20516;-72
2022/10/03 02:19:49;;;;;;;15.40;2.73;;;11.30;1.00;;;;;;5082071;28;20983;-70
2022/10/03 02:22:36;;;;;;;7.07;3.27;;;11.30;1.00;;;;;;5071223;28;20466;-69
2022/10/03 02:25:20;;;;;;;11.90;2.60;;;11.30;1.00;;;;;;5065639;28;20424;-68
2022/10/03 02:28:19;;;;;;;11.63;3.00;;;11.30;1.00;;;;;;5080251;28;20795;-69
2022/10/03 02:31:06;;;;;;;18.00;3.20;;;11.30;1.00;;;;;;5076974;28;20401;-69
2022/10/03 02:34:03;;;;;;;5.40;2.10;;;11.40;1.00;;;;;;5073144;28;20433;-69
2022/10/03 02:36:59;;;;;;;10.77;4.30;;;11.50;1.00;;;;;;5063253;28;20895;-71
2022/10/03 02:40:07;;;;;;;5.83;2.70;;;11.40;1.00;;;;;;5073537;28;20458;-68
2022/10/03 02:43:19;;;;;;;7.10;2.27;;;11.40;1.00;;;;;;5048049;28;20445;-70
2022/10/03 02:46:26;;;;;;;6.60;1.93;;;11.40;99.90;;;;;;5062035;28;20440;-69
2022/10/03 02:49:25;;;;;;;12.30;4.07;;;11.40;99.90;;;;;;5073934;28;20921;-70
2022/10/03 02:52:24;;;;;;;3.23;1.80;;;11.40;99.90;;;;;;5062141;28;20914;-70
2022/10/03 02:55:43;;;;;;;9.60;2.30;;;11.40;99.90;;;;;;5072388;28;20520;-70
2022/10/03 02:58:45;;;;;;;5.63;2.07;;;11.40;99.90;;;;;;4987774;28;20436;-70
2022/10/03 03:01:55;;;;;;;10.43;3.23;;;11.40;99.90;;;;;;5009310;28;20401;-70
2022/10/03 03:04:59;;;;;;;8.67;2.23;;;11.40;99.90;;;;;;5059368;28;20995;-69
2022/10/03 03:07:44;;;;;;;5.20;2.10;;;11.40;99.90;;;;;;5068666;28;20760;-69
2022/10/03 03:10:58;;;;;;;10.80;2.07;;;11.40;99.90;;;;;;5082528;28;20401;-70
2022/10/03 03:13:57;;;;;;;9.70;3.67;;;11.40;99.90;;;;;;5031583;28;20438;-71
2022/10/03 03:16:56;;;;;;;24.80;2.60;;;11.40;99.90;;;;;;5071834;28;20537;-70
2022/10/03 03:19:42;;;;;;;28.47;3.17;;;11.40;99.90;;;;;;5038894;28;20456;-70
2022/10/03 03:22:26;;;;;;;12.23;3.60;;;11.40;99.90;;;;;;5073908;28;20495;-69
2022/10/03 03:25:13;;;;;;;15.57;2.67;;;11.40;99.90;;;;;;5080272;28;20498;-69
2022/10/03 03:27:50;;;;;;;12.83;2.00;;;11.40;99.90;;;;;;5060228;28;20464;-71
2022/10/03 03:30:22;;;;;;;9.20;2.63;;;11.40;99.90;;;;;;5072032;28;20418;-69
2022/10/03 03:33:06;;;;;;;11.97;2.27;;;11.30;99.90;;;;;;5071394;28;20426;-69
2022/10/03 03:35:47;;;;;;;4.97;2.07;;;11.40;99.90;;;;;;5114395;22;21014;-69
2022/10/03 03:38:26;;;;;;;14.50;2.80;;;11.30;99.90;;;;;;5078536;28;20431;-69
2022/10/03 03:41:13;;;;;;;4.97;2.40;;;11.30;99.90;;;;;;5091707;28;20396;-68
2022/10/03 03:44:05;;;;;;;12.80;3.10;;;11.30;99.90;;;;;;5090002;28;20424;-69
2022/10/03 03:46:52;;;;;;;6.00;1.90;;;11.30;99.90;;;;;;5070332;28;20441;-70
2022/10/03 03:49:40;;;;;;;8.10;2.27;;;11.30;99.90;;;;;;5091560;28;20413;-69
2022/10/03 03:52:23;;;;;;;6.47;2.50;;;11.20;99.90;;;;;;5077567;28;20460;-69
2022/10/03 03:55:14;;;;;;;10.83;2.63;;;11.20;99.90;;;;;;5071651;28;20417;-69
2022/10/03 03:58:04;;;;;;;9.93;3.30;;;11.30;99.90;;;;;;5078112;28;20429;-70
2022/10/03 04:00:49;;;;;;;9.83;3.40;;;11.20;1.00;;;;;;5065380;28;20537;-70
2022/10/03 04:03:38;;;;;;;4.43;1.87;;;11.30;1.00;;;;;;5074400;28;20425;-70
2022/10/03 04:06:21;;;;;;;8.00;2.33;;;11.30;1.00;;;;;;5072230;28;20446;-70
2022/10/03 04:09:22;;;;;;;5.90;2.10;;;11.20;99.90;;;;;;5075514;28;20433;-70
2022/10/03 04:11:59;;;;;;;12.60;3.97;;;11.20;99.90;;;;;;5066388;28;20434;-69
2022/10/03 04:15:04;;;;;;;7.13;2.37;;;11.20;99.90;;;;;;5075176;28;20428;-69
2022/10/03 04:20:54;;;;;;;8.73;3.50;;;11.30;99.90;;;;;;5073408;28;20401;-72
2022/10/03 04:23:36;;;;;;;7.77;1.70;;;11.20;99.90;;;;;;5081752;28;20441;-69
2022/10/03 04:26:19;;;;;;;10.53;2.70;;;11.30;99.90;;;;;;5091574;28;20446;-70
2022/10/03 04:29:46;;;;;;;6.07;2.80;;;11.20;99.90;;;;;;5079526;28;20433;-69
2022/10/03 04:32:56;;;;;;;21.03;3.63;;;11.30;99.90;;;;;;5020798;28;20568;-69
2022/10/03 04:36:20;;;;;;;18.23;3.00;;;11.20;99.90;;;;;;5011646;28;20484;-69
2022/10/03 04:38:59;;;;;;;7.00;2.20;;;11.30;99.90;;;;;;5009049;28;20443;-72
2022/10/03 04:41:38;;;;;;;12.77;4.50;;;11.40;99.90;;;;;;5008828;28;20822;-70
2022/10/03 04:44:26;;;;;;;8.73;2.17;;;11.30;99.90;;;;;;5051403;28;21042;-70
2022/10/03 04:46:59;;;;;;;13.73;3.80;;;11.30;99.90;;;;;;5074033;28;20397;-70
2022/10/03 04:49:39;;;;;;;16.73;4.23;;;11.30;99.90;;;;;;5061484;28;20473;-70
2022/10/03 04:52:17;;;;;;;9.03;4.07;;;11.30;99.90;;;;;;5050623;28;20741;-71
2022/10/03 04:54:54;;;;;;;9.70;2.67;;;11.30;99.90;;;;;;5068534;28;20425;-69
2022/10/03 04:57:31;;;;;;;18.00;2.60;;;11.30;99.90;;;;;;5070186;28;20422;-70
2022/10/03 05:00:07;;;;;;;5.33;2.30;;;11.30;99.90;;;;;;5049950;28;20451;-72
2022/10/03 05:02:45;;;;;;;9.93;3.50;;;11.20;99.90;;;;;;5058114;28;20408;-71
2022/10/03 05:05:40;;;;;;;6.77;2.80;;;11.20;99.90;;;;;;5060793;28;20977;-69
2022/10/03 05:08:20;;;;;;;5.30;2.47;;;11.20;99.90;;;;;;5072446;28;20520;-71
2022/10/03 05:10:57;;;;;;;9.43;2.27;;;11.20;99.90;;;;;;5076893;28;20408;-72
2022/10/03 05:13:38;;;;;;;7.63;2.63;;;11.20;99.90;;;;;;5069680;28;20427;-73
2022/10/03 05:16:20;;;;;;;11.83;2.90;;;11.20;99.90;;;;;;5073011;28;20425;-71
2022/10/03 05:18:56;;;;;;;6.67;2.30;;;11.20;99.90;;;;;;5077952;28;21002;-71
2022/10/03 05:21:36;;;;;;;20.97;3.13;;;11.10;99.90;;;;;;5068409;28;20811;-71
2022/10/03 05:24:19;;;;;;;7.63;2.30;;;11.20;99.90;;;;;;5070167;28;20426;-71
2022/10/03 05:26:57;;;;;;;6.03;2.43;;;11.20;99.90;;;;;;5069999;28;20405;-69
2022/10/03 05:29:37;;;;;;;9.13;2.60;;;11.10;99.90;;;;;;5069794;28;20925;-70
2022/10/03 05:32:16;;;;;;;9.00;2.67;;;11.10;99.90;;;;;;5070362;28;20441;-70
2022/10/03 05:35:04;;;;;;;9.33;2.53;;;11.20;99.90;;;;;;5070392;28;20562;-70
2022/10/03 05:38:12;;;;;;;6.70;2.77;;;11.20;99.90;;;;;;5072615;28;20420;-72
2022/10/03 05:40:49;;;;;;;6.10;2.17;;;11.10;99.90;;;;;;5064474;28;20466;-71
2022/10/03 05:43:28;;;;;;;12.60;2.97;;;11.20;99.90;;;;;;5071396;28;20475;-71
2022/10/03 05:46:03;;;;;;;9.80;2.37;;;11.20;99.90;;;;;;5071501;28;20449;-69
2022/10/03 05:48:45;;;;;;;12.37;2.73;;;11.20;99.90;;;;;;5063696;28;20407;-71
2022/10/03 05:51:38;;;;;;;9.83;2.90;;;11.20;99.90;;;;;;5069383;28;20463;-71
2022/10/03 05:54:47;;;;;;;13.97;3.10;;;11.20;99.90;;;;;;5069282;28;20454;-71
2022/10/03 05:57:43;;;;;;;6.40;2.50;;;11.30;99.90;;;;;;5069192;28;20410;-71
2022/10/03 06:00:20;;;;;;;8.73;2.03;;;11.30;99.90;;;;;;5068956;28;20466;-71
2022/10/03 06:03:29;;;;;;;11.30;2.53;;;11.30;99.90;;;;;;5063904;28;20445;-69
2022/10/03 06:06:11;;;;;;;6.40;2.23;;;11.30;99.90;;;;;;5039968;28;20552;-70
2022/10/03 06:09:00;;;;;;;11.07;3.50;;;11.30;99.90;;;;;;5069693;28;20401;-70
2022/10/03 06:11:52;;;;;;;10.40;2.73;;;11.20;99.90;;;;;;5068515;28;20409;-70
2022/10/03 06:14:43;;;;;;;14.30;3.33;;;11.30;99.90;;;;;;5063409;28;20418;-70
2022/10/03 06:17:40;;;;;;;11.50;2.50;;;11.30;99.90;;;;;;5069554;28;20963;-70
2022/10/03 06:20:40;;;;;;;13.83;3.33;;;11.30;99.90;;;;;;5055457;28;20494;-71
2022/10/03 06:23:47;;;;;;;8.93;2.00;;;11.40;99.90;;;;;;5069302;28;20445;-72
2022/10/03 06:26:45;;;;;;;5.00;2.03;;;11.40;99.90;;;;;;5066412;28;21006;-71
2022/10/03 06:30:02;;;;;;;11.33;2.10;;;11.40;99.90;;;;;;5063704;28;20436;-70
2022/10/03 06:33:08;;;;;;;13.47;2.67;;;11.40;99.90;;;;;;5064095;28;20430;-70
2022/10/03 06:36:13;;;;;;;23.80;2.77;;;11.50;99.90;;;;;;5079891;28;20448;-69
2022/10/03 06:39:19;;;;;;;7.83;3.40;;;11.60;99.90;;;;;;5072235;28;20796;-70
2022/10/03 06:42:15;;;;;;;10.30;2.30;;;11.70;99.90;;;;;;5073142;28;20483;-71
2022/10/03 06:45:20;;;;;;;6.93;2.80;;;11.70;99.90;;;;;;5028851;28;20441;-69
2022/10/03 06:48:08;;;;;;;6.27;1.80;;;11.80;99.90;;;;;;5070481;28;20428;-71
2022/10/03 06:50:52;;;;;;;5.20;1.77;;;11.70;99.90;;;;;;5065753;28;20418;-71
2022/10/03 06:53:58;;;;;;;8.43;2.60;;;11.70;99.90;;;;;;5082902;28;20400;-71
2022/10/03 06:57:11;;;;;;;8.57;2.23;;;11.70;99.90;;;;;;5039055;28;20442;-70
2022/10/03 07:00:09;;;;;;;5.90;1.73;;;11.70;99.90;;;;;;5009965;28;21064;-71
2022/10/03 07:02:56;;;;;;;7.80;2.20;;;11.90;99.90;;;;;;5071885;28;20820;-71
2022/10/03 07:05:56;;;;;;;7.13;2.07;;;11.90;99.90;;;;;;5073070;28;20427;-71
2022/10/03 07:08:57;;;;;;;5.40;2.43;;;11.90;99.90;;;;;;5074874;28;20793;-70
2022/10/03 07:11:55;;;;;;;4.93;2.23;;;12.00;99.90;;;;;;5066054;28;20400;-71
2022/10/03 07:15:12;;;;;;;13.83;2.77;;;12.20;99.90;;;;;;5071136;28;20492;-70
2022/10/03 07:18:24;;;;;;;16.03;2.27;;;12.30;99.90;;;;;;5072198;28;20397;-71
2022/10/03 07:21:27;;;;;;;13.63;2.17;;;12.50;99.90;;;;;;5059670;28;20465;-72
2022/10/03 07:24:19;;;;;;;12.93;1.97;;;12.40;99.90;;;;;;5068539;28;20445;-70
2022/10/03 07:27:07;;;;;;;11.43;2.40;;;12.40;99.90;;;;;;5072396;28;20417;-71
2022/10/03 07:30:05;;;;;;;12.23;2.50;;;12.50;99.90;;;;;;5072453;28;20433;-74
2022/10/03 07:33:07;;;;;;;12.93;2.10;;;12.60;99.90;;;;;;5072436;28;20495;-71
2022/10/03 07:39:02;;;;;;;5.77;1.43;;;12.60;99.90;;;;;;5070658;28;20433;-72
2022/10/03 07:42:05;;;;;;;13.10;2.70;;;12.70;99.90;;;;;;5070677;28;20627;-73
2022/10/03 07:45:13;;;;;;;5.10;1.87;;;12.70;99.90;;;;;;5067271;28;20849;-71
2022/10/03 07:48:16;;;;;;;9.63;2.40;;;12.60;99.90;;;;;;5066711;28;20430;-71
2022/10/03 07:51:19;;;;;;;7.90;2.30;;;12.50;99.90;;;;;;5071387;28;20396;-72
2022/10/03 07:54:35;;;;;;;14.50;2.47;;;12.50;99.90;;;;;;5070966;28;20407;-72
2022/10/03 07:57:31;;;;;;;7.30;1.60;;;12.60;99.90;;;;;;4992014;28;20497;-72
2022/10/03 08:00:23;;;;;;;17.93;3.43;;;12.70;99.90;;;;;;5061622;28;20442;-71
2022/10/03 08:03:43;;;;;;;6.43;1.80;;;12.70;99.90;;;;;;5066885;28;20473;-71
2022/10/03 08:06:25;;;;;;;10.33;2.70;;;12.70;99.90;;;;;;5061178;28;20456;-70
2022/10/03 08:09:40;;;;;;;9.57;2.50;;;12.70;99.90;;;;;;5069715;28;20393;-71
2022/10/03 08:12:44;;;;;;;8.03;1.80;;;12.80;99.90;;;;;;5025499;28;20463;-71
2022/10/03 08:15:27;;;;;;;10.80;3.23;;;12.80;99.90;;;;;;5067068;28;20421;-72
2022/10/03 08:18:29;;;;;;;8.50;1.63;;;12.90;99.90;;;;;;5084584;22;20456;-69
2022/10/03 08:20:59;;;;;;;10.97;2.40;;;13.10;99.90;;;;;;5048803;28;20517;-70
2022/10/03 08:24:03;;;;;;;12.77;2.70;;;13.30;99.90;;;;;;5084848;28;20516;-73
2022/10/03 08:26:52;;;;;;;6.70;1.97;;;13.30;99.90;;;;;;5069976;28;20412;-72
2022/10/03 08:29:40;;;;;;;9.43;2.60;;;13.20;99.90;;;;;;5057243;28;20432;-71
2022/10/03 08:35:29;;;;;;;8.10;1.70;;;13.00;99.90;;;;;;5031385;28;20451;-70
2022/10/03 08:38:24;;;;;;;8.77;2.10;;;13.10;99.90;;;;;;4960222;28;20429;-69
2022/10/03 08:41:25;;;;;;;8.00;2.10;;;13.30;99.90;;;;;;4957009;28;20464;-70
2022/10/03 08:44:30;;;;;;;7.50;2.30;;;13.50;97.60;;;;;;5008107;28;20461;-70
2022/10/03 08:47:45;;;;;;;13.27;2.73;;;13.30;95.20;;;;;;5014077;28;20454;-70
2022/10/03 08:50:41;;;;;;;13.70;2.40;;;13.30;97.10;;;;;;5032892;28;20924;-70
2022/10/03 08:53:47;;;;;;;8.70;2.13;;;13.40;97.00;;;;;;5030915;28;20446;-70
2022/10/03 08:56:21;;;;;;;6.70;2.23;;;13.60;96.50;;;;;;5033634;28;20947;-69
2022/10/03 08:59:27;;;;;;;3.10;1.47;;;13.80;95.20;;;;;;5040709;28;20432;-70
2022/10/03 09:02:26;;;;;;;5.80;1.63;;;13.80;90.50;;;;;;5046758;28;20442;-70
2022/10/03 09:05:28;;;;;;;5.33;2.10;;;13.70;87.90;;;;;;5033102;28;20423;-70
2022/10/03 09:08:38;;;;;;;16.67;2.80;;;13.70;89.10;;;;;;5032810;28;20405;-69
2022/10/03 09:11:45;;;;;;;4.53;1.80;;;13.90;84.10;;;;;;5033252;28;20449;-69
2022/10/03 09:14:47;;;;;;;12.77;2.00;;;13.80;76.90;;;;;;5025743;28;20930;-70
2022/10/03 09:17:54;;;;;;;11.10;2.13;;;13.70;75.90;;;;;;5039442;28;20961;-70
2022/10/03 09:20:51;;;;;;;11.20;2.17;;;13.80;79.50;;;;;;5040060;28;20929;-69
2022/10/03 09:23:56;;;;;;;8.17;2.70;;;13.90;72.90;;;;;;5042340;28;20452;-70
2022/10/03 09:26:58;;;;;;;12.53;2.33;;;13.90;71.90;;;;;;5033069;28;20431;-69
2022/10/03 09:30:11;;;;;;;10.07;2.70;;;13.90;78.80;;;;;;5046582;28;20401;-70
2022/10/03 09:33:00;;;;;;;8.43;1.77;;;14.10;69.70;;;;;;5046055;28;22143;-70
2022/10/03 09:35:58;;;;;;;9.10;2.00;;;14.10;63.30;;;;;;5042429;28;20807;-70
2022/10/03 09:38:59;;;;;;;7.57;2.30;;;14.20;63.80;;;;;;5033165;28;20762;-70
2022/10/03 09:42:16;;;;;;;13.70;3.30;;;14.20;59.50;;;;;;5034004;28;20533;-69
2022/10/03 09:45:23;;;;;;;9.40;1.80;;;14.30;59.50;;;;;;5032220;28;20450;-69
2022/10/03 09:48:22;;;;;;;8.60;2.53;;;14.20;56.30;;;;;;5011977;28;20445;-69
2022/10/03 09:51:18;;;;;;;2.87;1.93;;;14.40;55.00;;;;;;5034419;28;20474;-69
2022/10/03 09:54:34;;;;;;;12.80;2.33;;;14.70;53.30;;;;;;5033018;28;20435;-70
2022/10/03 09:57:40;;;;;;;16.93;4.30;;;14.80;51.50;;;;;;5034866;28;20413;-70
2022/10/03 10:00:21;;;;;;;11.27;2.20;;;14.80;47.50;;;;;;5033387;28;20410;-71
2022/10/03 10:03:11;;;;;;;7.43;1.67;;;14.60;45.30;;;;;;5035052;28;20475;-70
2022/10/03 10:06:07;;;;;;;8.53;1.70;;;14.40;46.60;;;;;;5019419;28;20895;-69
2022/10/03 10:09:08;;;;;;;6.30;1.60;;;14.30;48.00;;;;;;5048639;28;20874;-69
2022/10/03 10:12:01;;;;;;;7.77;2.60;;;14.30;48.70;;;;;;5028606;28;20969;-69
2022/10/03 10:15:26;;;;;;;13.50;3.33;;;14.40;48.00;;;;;;5033406;28;20443;-71
2022/10/03 10:18:28;;;;;;;4.07;1.10;;;14.60;52.70;;;;;;5014719;28;20440;-69
2022/10/03 10:21:26;;;;;;;19.30;2.43;;;14.80;59.80;;;;;;5021199;28;20895;-69
2022/10/03 10:24:11;;;;;;;6.87;1.90;;;14.80;42.30;;;;;;5041193;28;20425;-69
2022/10/03 10:27:03;;;;;;;6.30;1.63;;;14.90;43.20;;;;;;5047466;28;20417;-69
2022/10/03 10:30:02;;;;;;;8.53;2.33;;;15.20;41.80;;;;;;5020228;28;20468;-69
2022/10/03 10:33:09;;;;;;;8.13;2.33;;;15.20;41.10;;;;;;5045308;28;20423;-69
2022/10/03 10:36:15;;;;;;;6.07;1.57;;;15.00;39.40;;;;;;5045767;28;20439;-70
2022/10/03 10:39:34;;;;;;;2.87;1.43;;;14.90;40.10;;;;;;5049558;28;20840;-70
2022/10/03 10:42:39;;;;;;;9.03;2.57;;;14.60;42.30;;;;;;4963950;28;20457;-69
2022/10/03 10:45:39;;;;;;;7.80;3.10;;;14.50;40.20;;;;;;5041505;28;20777;-69
2022/10/03 10:48:39;;;;;;;6.83;2.60;;;14.70;40.50;;;;;;5041806;28;20916;-70
2022/10/03 10:51:41;;;;;;;6.70;1.87;;;15.00;38.50;;;;;;5043925;28;20454;-70
2022/10/03 10:54:50;;;;;;;7.17;2.33;;;15.30;36.10;;;;;;5039399;28;20820;-69
2022/10/03 10:57:56;;;;;;;3.90;1.20;;;15.50;30.30;;;;;;5012030;28;20511;-70
2022/10/03 11:00:39;;;;;;;4.90;1.70;;;15.50;29.80;;;;;;5039814;28;20432;-70
2022/10/03 11:03:41;;;;;;;4.30;1.63;;;15.30;29.80;;;;;;5037585;28;20510;-70
2022/10/03 11:06:45;;;;;;;10.40;2.33;;;15.30;30.20;;;;;;5031980;28;20453;-70
2022/10/03 11:09:52;;;;;;;12.97;1.90;;;15.50;31.10;;;;;;5041122;28;20432;-69
2022/10/03 11:13:09;;;;;;;7.27;2.50;;;15.80;31.80;;;;;;5036351;28;20420;-69
2022/10/03 11:16:21;;;;;;;9.67;2.00;;;15.80;29.90;;;;;;5026575;28;20428;-70
2022/10/03 11:19:36;;;;;;;8.47;2.80;;;15.70;29.70;;;;;;5031747;28;20928;-70
2022/10/03 11:22:51;;;;;;;4.80;1.63;;;15.80;31.10;;;;;;5029520;28;20459;-70
2022/10/03 11:25:52;;;;;;;7.00;1.77;;;15.70;27.80;;;;;;5022106;28;20425;-70
2022/10/03 11:28:58;;;;;;;16.60;2.10;;;15.70;30.00;;;;;;5034343;28;20443;-70
2022/10/03 11:32:07;;;;;;;6.70;2.63;;;15.70;28.50;;;;;;5038646;28;20463;-70
2022/10/03 11:35:16;;;;;;;7.30;2.13;;;15.50;33.50;;;;;;5047478;28;20481;-69
2022/10/03 11:37:46;;;;;;;4.63;1.60;;;15.50;37.10;;;;;;5015327;28;20971;-70
2022/10/03 11:40:35;;;;;;;3.17;1.33;;;15.20;43.40;;;;;;5034635;28;20411;-71
2022/10/03 11:43:48;;;;;;;6.83;1.53;;;15.30;46.80;;;;;;5029648;28;20479;-69
2022/10/03 11:46:24;;;;;;;10.13;2.30;;;15.40;43.90;;;;;;5009070;28;20502;-69
2022/10/03 11:48:58;;;;;;;11.33;1.90;;;15.60;43.80;;;;;;5044036;28;20448;-69
2022/10/03 11:51:37;;;;;;;5.33;1.90;;;15.60;53.20;;;;;;5040871;28;20891;-71
2022/10/03 11:54:17;;;;;;;4.57;1.43;;;15.70;41.60;;;;;;5037174;28;20542;-70
2022/10/03 11:57:08;;;;;;;7.80;1.27;;;15.70;50.80;;;;;;5036379;28;20777;-70
2022/10/03 12:00:05;;;;;;;8.57;1.40;;;15.30;40.70;;;;;;5034306;28;20428;-69
2022/10/03 12:03:05;;;;;;;5.33;1.90;;;15.20;43.40;;;;;;4991133;28;21009;-69
2022/10/03 12:05:48;;;;;;;7.13;1.90;;;15.20;46.40;;;;;;5024278;28;20889;-70
2022/10/03 12:11:19;;;;;;;5.27;1.53;;;15.40;51.50;;;;;;5028250;28;20406;-70
2022/10/03 12:13:59;;;;;;;4.60;2.03;;;15.30;49.30;;;;;;5042128;28;20448;-70
2022/10/03 12:16:32;;;;;;;10.93;2.50;;;15.20;52.70;;;;;;5052460;28;20412;-69
2022/10/03 12:19:10;;;;;;;5.77;1.60;;;15.30;52.30;;;;;;5037798;28;20410;-70
2022/10/03 12:21:51;;;;;;;4.00;1.83;;;15.50;51.30;;;;;;5057935;28;20460;-69
2022/10/03 12:24:34;;;;;;;8.80;2.50;;;15.50;48.80;;;;;;5025702;28;20455;-70
2022/10/03 12:27:12;;;;;;;10.43;1.73;;;15.60;47.20;;;;;;5033297;28;20439;-70
2022/10/03 12:29:44;;;;;;;7.23;1.57;;;15.70;46.50;;;;;;5044157;28;20460;-69
2022/10/03 12:32:20;;;;;;;6.90;3.60;;;15.70;43.50;;;;;;5040612;28;20789;-69
2022/10/03 12:34:57;;;;;;;10.73;2.20;;;15.80;44.00;;;;;;5051476;28;20929;-69
2022/10/03 12:37:44;;;;;;;11.80;2.60;;;15.90;43.30;;;;;;5048258;28;20399;-70
2022/10/03 12:40:19;;;;;;;9.30;2.33;;;16.30;40.40;;;;;;5039568;28;20847;-69
2022/10/03 12:43:00;;;;;;;10.07;2.13;;;16.60;35.50;;;;;;5035408;28;20995;-70
2022/10/03 12:45:34;;;;;;;7.27;1.60;;;16.20;31.30;;;;;;5049290;28;20558;-70
2022/10/03 12:48:26;;;;;;;4.53;1.80;;;15.90;31.00;;;;;;5032950;28;20871;-69
2022/10/03 12:51:05;;;;;;;4.83;2.07;;;15.70;35.90;;;;;;5039961;28;20435;-70
2022/10/03 12:53:53;;;;;;;10.23;3.27;;;15.60;34.30;;;;;;5037561;28;20456;-70
2022/10/03 12:56:40;;;;;;;11.17;2.00;;;15.60;34.00;;;;;;5063500;28;20443;-69
2022/10/03 12:59:30;;;;;;;9.70;1.63;;;15.70;36.20;;;;;;5042119;28;20431;-69
2022/10/03 13:05:26;;;;;;;13.60;2.23;;;16.30;36.60;;;;;;5022806;28;20444;-70
2022/10/03 13:08:07;;;;;;;2.93;1.30;;;16.60;30.60;;;;;;5033973;28;20427;-71
2022/10/03 13:10:47;;;;;;;4.43;1.83;;;16.60;29.10;;;;;;5032609;28;20411;-70
2022/10/03 13:13:28;;;;;;;5.10;1.80;;;16.70;29.10;;;;;;5013200;28;20434;-70
2022/10/03 13:16:24;;;;;;;12.80;2.50;;;16.80;28.40;;;;;;5029328;28;20414;-70
2022/10/03 13:19:11;;;;;;;10.87;1.80;;;16.80;26.70;;;;;;5039354;28;20427;-69
2022/10/03 13:22:06;;;;;;;5.73;1.30;;;16.80;22.70;;;;;;5031085;28;20432;-70
2022/10/03 13:24:51;;;;;;;1.80;1.00;;;16.80;21.60;;;;;;5032860;28;20502;-70
2022/10/03 13:30:38;;;;;;;3.77;1.87;;;17.00;18.20;;;;;;5027534;28;20817;-70
2022/10/03 13:33:19;;;;;;;7.83;1.40;;;16.70;16.80;;;;;;5030341;28;20517;-70
2022/10/03 13:39:13;;;;;;;7.07;1.80;;;16.50;16.60;;;;;;5019864;28;20437;-70
2022/10/03 13:42:02;;;;;;;4.27;1.63;;;16.40;16.60;;;;;;5025315;28;20449;-70
2022/10/03 13:44:53;;;;;;;9.93;1.27;;;16.50;17.10;;;;;;5032646;28;20999;-69
2022/10/03 13:47:57;;;;;;;4.30;2.03;;;16.50;16.90;;;;;;5028421;28;20407;-70
2022/10/03 13:50:37;;;;;;;12.03;2.43;;;16.40;14.60;;;;;;5035084;28;20417;-70
2022/10/03 13:53:14;;;;;;;3.80;1.47;;;16.20;11.60;;;;;;5035648;28;20501;-70
2022/10/03 13:55:48;;;;;;;2.67;1.20;;;16.10;12.90;;;;;;5036169;28;20448;-70
2022/10/03 13:58:31;;;;;;;4.10;1.80;;;16.00;12.20;;;;;;5040171;28;20431;-69
2022/10/03 14:01:28;;;;;;;6.60;2.03;;;15.80;13.30;;;;;;5039886;28;20406;-69
2022/10/03 14:04:20;;;;;;;5.40;1.40;;;15.70;13.60;;;;;;5027854;28;20485;-70
2022/10/03 14:06:55;;;;;;;3.60;1.03;;;15.70;14.40;;;;;;5031276;28;20410;-69
2022/10/03 14:09:46;;;;;;;12.30;1.37;;;15.70;14.80;;;;;;5040280;28;20452;-70
2022/10/03 14:12:22;;;;;;;14.93;4.80;;;15.70;15.40;;;;;;5048489;28;20514;-69
2022/10/03 14:15:45;;;;;;;3.00;1.30;;;15.80;16.10;;;;;;5026396;28;20423;-69
2022/10/03 14:18:32;;;;;;;11.07;1.80;;;15.80;16.70;;;;;;5035692;28;20398;-69
2022/10/03 14:21:38;;;;;;;4.10;1.63;;;16.00;18.20;;;;;;5030931;28;20411;-69
2022/10/03 14:24:30;;;;;;;14.17;2.97;;;16.10;17.60;;;;;;5048947;28;20463;-69
2022/10/03 14:27:14;;;;;;;12.20;2.27;;;16.10;18.20;;;;;;5036351;28;20437;-69
2022/10/03 14:29:55;;;;;;;3.97;2.23;;;16.00;18.20;;;;;;5043889;28;20424;-70
2022/10/03 14:32:43;;;;;;;8.13;1.10;;;15.80;17.70;;;;;;5035151;28;20424;-69
2022/10/03 14:35:39;;;;;;;13.50;2.77;;;15.70;17.00;;;;;;5055934;22;20469;-68
2022/10/03 14:41:41;;;;;;;5.53;1.60;;;15.90;19.20;;;;;;5046630;28;20410;-68
2022/10/03 14:44:23;;;;;;;7.53;2.00;;;15.90;17.00;;;;;;5041025;28;20466;-68
2022/10/03 14:46:57;;;;;;;5.57;3.70;;;15.90;16.90;;;;;;5050720;28;20431;-70
2022/10/03 14:49:38;;;;;;;4.80;1.40;;;15.80;15.50;;;;;;5049588;28;20769;-72
2022/10/03 14:52:35;;;;;;;3.73;1.47;;;15.80;14.80;;;;;;5039540;28;20447;-71
2022/10/03 14:55:22;;;;;;;11.30;2.70;;;15.90;14.10;;;;;;5042598;28;20458;-72
2022/10/03 14:58:10;;;;;;;4.77;1.37;;;15.90;13.20;;;;;;5039345;28;20936;-69
2022/10/03 15:00:50;;;;;;;8.10;1.70;;;15.90;12.50;;;;;;5041018;28;20439;-69
2022/10/03 15:03:36;;;;;;;8.30;1.80;;;15.90;12.90;;;;;;5034554;28;20430;-71
2022/10/03 15:06:53;;;;;;;9.90;3.10;;;15.90;12.80;;;;;;5054310;28;20446;-72
2022/10/03 15:09:44;;;;;;;8.63;2.43;;;15.80;12.10;;;;;;4958816;28;20974;-71
2022/10/03 15:12:28;;;;;;;6.50;2.13;;;15.90;11.70;;;;;;5059726;28;20402;-70
2022/10/03 15:15:19;;;;;;;10.10;1.97;;;15.90;11.30;;;;;;5055933;28;20422;-70
2022/10/03 15:17:57;;;;;;;8.10;1.20;;;15.90;11.50;;;;;;5039291;28;20412;-70
2022/10/03 15:20:54;;;;;;;4.67;1.90;;;15.80;11.30;;;;;;5031859;28;20415;-71